sensor_id;sensor_type;location;lat;lon;timestamp;temperature;humidity
10192;DHT22;17580;50.850;4.504;2022-07-25T00:01:50;23.50;42.70
10192;DHT22;17580;50.850;4.504;2022-07-25T00:04:19;23.50;42.40
10192;DHT22;17580;50.850;4.504;2022-07-25T00:06:46;23.50;42.30
10192;DHT22;17580;50.850;4.504;2022-07-25T00:09:13;23.50;43.20
10192;DHT22;17580;50.850;4.504;2022-07-25T00:11:41;23.50;42.50
10192;DHT22;17580;50.850;4.504;2022-07-25T00:14:08;23.50;42.60
10192;DHT22;17580;50.850;4.504;2022-07-25T00:16:35;23.40;42.70
10192;DHT22;17580;50.850;4.504;2022-07-25T00:19:02;23.40;42.60
10192;DHT22;17580;50.850;4.504;2022-07-25T00:21:29;23.40;42.60
10192;DHT22;17580;50.850;4.504;2022-07-25T00:23:57;23.30;42.70
10192;DHT22;17580;50.850;4.504;2022-07-25T00:26:24;23.30;42.90
10192;DHT22;17580;50.850;4.504;2022-07-25T00:28:52;23.30;43.00
10192;DHT22;17580;50.850;4.504;2022-07-25T00:31:19;23.20;43.60
10192;DHT22;17580;50.850;4.504;2022-07-25T00:33:46;23.10;43.20
10192;DHT22;17580;50.850;4.504;2022-07-25T00:36:13;23.20;43.40
10192;DHT22;17580;50.850;4.504;2022-07-25T00:38:39;23.20;43.20
10192;DHT22;17580;50.850;4.504;2022-07-25T00:41:08;23.20;43.40
10192;DHT22;17580;50.850;4.504;2022-07-25T00:43:35;23.10;43.30
10192;DHT22;17580;50.850;4.504;2022-07-25T00:46:04;23.10;43.40
10192;DHT22;17580;50.850;4.504;2022-07-25T00:48:31;23.10;43.60
10192;DHT22;17580;50.850;4.504;2022-07-25T00:50:58;23.10;43.70
10192;DHT22;17580;50.850;4.504;2022-07-25T00:53:25;23.00;43.60
10192;DHT22;17580;50.850;4.504;2022-07-25T00:55:52;23.00;43.90
10192;DHT22;17580;50.850;4.504;2022-07-25T00:58:20;23.00;43.90
10192;DHT22;17580;50.850;4.504;2022-07-25T01:00:46;23.00;44.10
10192;DHT22;17580;50.850;4.504;2022-07-25T01:03:15;22.90;44.10
10192;DHT22;17580;50.850;4.504;2022-07-25T01:05:42;22.90;44.10
10192;DHT22;17580;50.850;4.504;2022-07-25T01:08:10;22.90;44.30
10192;DHT22;17580;50.850;4.504;2022-07-25T01:10:40;22.90;44.70
10192;DHT22;17580;50.850;4.504;2022-07-25T01:13:07;22.80;44.50
10192;DHT22;17580;50.850;4.504;2022-07-25T01:15:34;22.80;44.60
10192;DHT22;17580;50.850;4.504;2022-07-25T01:18:01;22.80;44.90
10192;DHT22;17580;50.850;4.504;2022-07-25T01:20:31;22.80;45.20
10192;DHT22;17580;50.850;4.504;2022-07-25T01:22:59;22.80;45.40
10192;DHT22;17580;50.850;4.504;2022-07-25T01:25:26;22.80;45.20
10192;DHT22;17580;50.850;4.504;2022-07-25T01:27:54;22.70;45.60
10192;DHT22;17580;50.850;4.504;2022-07-25T01:30:23;22.70;45.20
10192;DHT22;17580;50.850;4.504;2022-07-25T01:32:51;22.70;45.20
10192;DHT22;17580;50.850;4.504;2022-07-25T01:35:18;22.70;45.50
10192;DHT22;17580;50.850;4.504;2022-07-25T01:37:46;22.60;45.60
10192;DHT22;17580;50.850;4.504;2022-07-25T01:40:14;22.60;45.70
10192;DHT22;17580;50.850;4.504;2022-07-25T01:42:45;22.60;45.60
10192;DHT22;17580;50.850;4.504;2022-07-25T01:45:12;22.60;45.90
10192;DHT22;17580;50.850;4.504;2022-07-25T01:47:39;22.60;45.90
10192;DHT22;17580;50.850;4.504;2022-07-25T01:50:07;22.60;46.00
10192;DHT22;17580;50.850;4.504;2022-07-25T01:52:35;22.50;46.00
10192;DHT22;17580;50.850;4.504;2022-07-25T01:55:06;22.50;46.10
10192;DHT22;17580;50.850;4.504;2022-07-25T01:57:34;22.60;46.40
10192;DHT22;17580;50.850;4.504;2022-07-25T02:00:01;22.50;46.30
10192;DHT22;17580;50.850;4.504;2022-07-25T02:02:28;22.50;46.20
10192;DHT22;17580;50.850;4.504;2022-07-25T02:04:55;22.50;46.40
10192;DHT22;17580;50.850;4.504;2022-07-25T02:07:22;22.50;46.50
10192;DHT22;17580;50.850;4.504;2022-07-25T02:09:49;22.50;46.30
10192;DHT22;17580;50.850;4.504;2022-07-25T02:12:19;22.50;46.30
10192;DHT22;17580;50.850;4.504;2022-07-25T02:14:46;22.50;46.50
10192;DHT22;17580;50.850;4.504;2022-07-25T02:17:12;22.40;48.60
10192;DHT22;17580;50.850;4.504;2022-07-25T02:19:39;22.40;49.70
10192;DHT22;17580;50.850;4.504;2022-07-25T02:22:07;22.30;49.50
10192;DHT22;17580;50.850;4.504;2022-07-25T02:24:34;22.30;49.60
10192;DHT22;17580;50.850;4.504;2022-07-25T02:27:01;22.20;51.10
10192;DHT22;17580;50.850;4.504;2022-07-25T02:29:30;22.10;51.70
10192;DHT22;17580;50.850;4.504;2022-07-25T02:31:57;22.20;49.80
10192;DHT22;17580;50.850;4.504;2022-07-25T02:34:24;22.20;50.60
10192;DHT22;17580;50.850;4.504;2022-07-25T02:36:51;22.20;50.50
10192;DHT22;17580;50.850;4.504;2022-07-25T02:39:18;22.30;49.90
10192;DHT22;17580;50.850;4.504;2022-07-25T02:41:45;22.40;51.30
10192;DHT22;17580;50.850;4.504;2022-07-25T02:44:12;22.40;50.40
10192;DHT22;17580;50.850;4.504;2022-07-25T02:46:40;22.40;49.80
10192;DHT22;17580;50.850;4.504;2022-07-25T02:49:08;22.30;51.90
10192;DHT22;17580;50.850;4.504;2022-07-25T02:51:35;22.30;51.60
10192;DHT22;17580;50.850;4.504;2022-07-25T02:54:02;22.20;52.70
10192;DHT22;17580;50.850;4.504;2022-07-25T02:56:28;22.20;53.20
10192;DHT22;17580;50.850;4.504;2022-07-25T02:58:57;22.20;52.80
10192;DHT22;17580;50.850;4.504;2022-07-25T03:01:24;22.20;53.00
10192;DHT22;17580;50.850;4.504;2022-07-25T03:03:53;22.20;53.50
10192;DHT22;17580;50.850;4.504;2022-07-25T03:06:20;22.20;54.80
10192;DHT22;17580;50.850;4.504;2022-07-25T03:08:46;22.10;55.70
10192;DHT22;17580;50.850;4.504;2022-07-25T03:11:13;22.10;55.90
10192;DHT22;17580;50.850;4.504;2022-07-25T03:13:41;22.10;55.10
10192;DHT22;17580;50.850;4.504;2022-07-25T03:16:08;22.10;56.00
10192;DHT22;17580;50.850;4.504;2022-07-25T03:18:35;22.20;54.90
10192;DHT22;17580;50.850;4.504;2022-07-25T03:21:04;22.10;57.00
10192;DHT22;17580;50.850;4.504;2022-07-25T03:23:31;22.20;54.80
10192;DHT22;17580;50.850;4.504;2022-07-25T03:25:58;22.10;56.50
10192;DHT22;17580;50.850;4.504;2022-07-25T03:28:25;22.10;56.30
10192;DHT22;17580;50.850;4.504;2022-07-25T03:30:53;22.10;57.00
10192;DHT22;17580;50.850;4.504;2022-07-25T03:33:20;22.10;56.10
10192;DHT22;17580;50.850;4.504;2022-07-25T03:35:47;22.10;56.10
10192;DHT22;17580;50.850;4.504;2022-07-25T03:38:15;22.20;55.20
10192;DHT22;17580;50.850;4.504;2022-07-25T03:40:42;22.20;56.10
10192;DHT22;17580;50.850;4.504;2022-07-25T03:43:09;22.20;56.30
10192;DHT22;17580;50.850;4.504;2022-07-25T03:45:35;22.20;56.10
10192;DHT22;17580;50.850;4.504;2022-07-25T03:48:03;22.20;55.80
10192;DHT22;17580;50.850;4.504;2022-07-25T03:50:30;22.20;56.90
10192;DHT22;17580;50.850;4.504;2022-07-25T03:52:57;22.20;57.50
10192;DHT22;17580;50.850;4.504;2022-07-25T03:55:25;22.20;56.20
10192;DHT22;17580;50.850;4.504;2022-07-25T03:57:52;22.20;56.70
10192;DHT22;17580;50.850;4.504;2022-07-25T04:00:19;22.30;56.20
10192;DHT22;17580;50.850;4.504;2022-07-25T04:02:46;22.30;56.80
10192;DHT22;17580;50.850;4.504;2022-07-25T04:05:13;22.20;56.70
10192;DHT22;17580;50.850;4.504;2022-07-25T04:07:40;22.20;56.80
10192;DHT22;17580;50.850;4.504;2022-07-25T04:10:08;22.20;57.10
10192;DHT22;17580;50.850;4.504;2022-07-25T04:12:37;22.20;56.90
10192;DHT22;17580;50.850;4.504;2022-07-25T04:15:05;22.20;56.80
10192;DHT22;17580;50.850;4.504;2022-07-25T04:17:32;22.30;56.90
10192;DHT22;17580;50.850;4.504;2022-07-25T04:19:59;22.30;57.10
10192;DHT22;17580;50.850;4.504;2022-07-25T04:22:26;22.30;57.50
10192;DHT22;17580;50.850;4.504;2022-07-25T04:24:53;22.30;57.80
10192;DHT22;17580;50.850;4.504;2022-07-25T04:27:20;22.20;57.60
10192;DHT22;17580;50.850;4.504;2022-07-25T04:29:48;22.30;56.60
10192;DHT22;17580;50.850;4.504;2022-07-25T04:32:15;22.30;56.50
10192;DHT22;17580;50.850;4.504;2022-07-25T04:34:43;22.30;56.60
10192;DHT22;17580;50.850;4.504;2022-07-25T04:37:10;22.40;55.90
10192;DHT22;17580;50.850;4.504;2022-07-25T04:39:37;22.30;56.60
10192;DHT22;17580;50.850;4.504;2022-07-25T04:42:04;22.30;54.00
10192;DHT22;17580;50.850;4.504;2022-07-25T04:44:31;22.30;52.90
10192;DHT22;17580;50.850;4.504;2022-07-25T04:46:59;22.40;52.90
10192;DHT22;17580;50.850;4.504;2022-07-25T04:49:26;22.40;52.80
10192;DHT22;17580;50.850;4.504;2022-07-25T04:51:53;22.30;51.90
10192;DHT22;17580;50.850;4.504;2022-07-25T04:54:20;22.30;52.10
10192;DHT22;17580;50.850;4.504;2022-07-25T04:56:47;22.20;48.70
10192;DHT22;17580;50.850;4.504;2022-07-25T04:59:14;22.20;47.40
10192;DHT22;17580;50.850;4.504;2022-07-25T05:01:41;22.20;47.60
10192;DHT22;17580;50.850;4.504;2022-07-25T05:04:09;22.20;45.60
10192;DHT22;17580;50.850;4.504;2022-07-25T05:06:36;22.20;44.10
10192;DHT22;17580;50.850;4.504;2022-07-25T05:09:03;22.20;43.80
10192;DHT22;17580;50.850;4.504;2022-07-25T05:11:29;22.20;43.60
10192;DHT22;17580;50.850;4.504;2022-07-25T05:13:56;22.30;43.40
10192;DHT22;17580;50.850;4.504;2022-07-25T05:16:23;22.20;44.30
10192;DHT22;17580;50.850;4.504;2022-07-25T05:18:50;22.20;44.40
10192;DHT22;17580;50.850;4.504;2022-07-25T05:21:18;22.10;45.00
10192;DHT22;17580;50.850;4.504;2022-07-25T05:23:48;22.10;45.80
10192;DHT22;17580;50.850;4.504;2022-07-25T05:26:15;22.00;47.70
10192;DHT22;17580;50.850;4.504;2022-07-25T05:28:42;22.00;48.70
10192;DHT22;17580;50.850;4.504;2022-07-25T05:31:09;22.00;49.70
10192;DHT22;17580;50.850;4.504;2022-07-25T05:33:36;21.90;51.30
10192;DHT22;17580;50.850;4.504;2022-07-25T05:36:03;21.90;52.60
10192;DHT22;17580;50.850;4.504;2022-07-25T05:38:32;22.00;52.10
10192;DHT22;17580;50.850;4.504;2022-07-25T05:40:59;22.00;52.70
10192;DHT22;17580;50.850;4.504;2022-07-25T05:43:25;22.00;53.30
10192;DHT22;17580;50.850;4.504;2022-07-25T05:45:53;22.00;52.30
10192;DHT22;17580;50.850;4.504;2022-07-25T05:48:25;22.10;52.50
10192;DHT22;17580;50.850;4.504;2022-07-25T05:50:52;22.10;52.90
10192;DHT22;17580;50.850;4.504;2022-07-25T05:53:19;22.10;52.20
10192;DHT22;17580;50.850;4.504;2022-07-25T05:55:47;22.10;52.20
10192;DHT22;17580;50.850;4.504;2022-07-25T05:58:14;22.00;52.10
10192;DHT22;17580;50.850;4.504;2022-07-25T06:00:42;22.00;53.00
10192;DHT22;17580;50.850;4.504;2022-07-25T06:03:09;22.10;53.60
10192;DHT22;17580;50.850;4.504;2022-07-25T06:05:36;22.00;53.40
10192;DHT22;17580;50.850;4.504;2022-07-25T06:08:04;22.00;54.50
10192;DHT22;17580;50.850;4.504;2022-07-25T06:10:32;21.90;54.20
10192;DHT22;17580;50.850;4.504;2022-07-25T06:13:02;22.00;55.00
10192;DHT22;17580;50.850;4.504;2022-07-25T06:15:28;22.10;55.20
10192;DHT22;17580;50.850;4.504;2022-07-25T06:17:55;22.10;56.20
10192;DHT22;17580;50.850;4.504;2022-07-25T06:20:23;22.10;55.40
10192;DHT22;17580;50.850;4.504;2022-07-25T06:22:50;22.00;55.50
10192;DHT22;17580;50.850;4.504;2022-07-25T06:25:17;22.10;56.00
10192;DHT22;17580;50.850;4.504;2022-07-25T06:27:44;22.10;56.30
10192;DHT22;17580;50.850;4.504;2022-07-25T06:30:13;22.10;57.10
10192;DHT22;17580;50.850;4.504;2022-07-25T06:32:39;22.10;58.30
10192;DHT22;17580;50.850;4.504;2022-07-25T06:35:07;22.10;59.00
10192;DHT22;17580;50.850;4.504;2022-07-25T06:37:36;22.20;61.30
10192;DHT22;17580;50.850;4.504;2022-07-25T06:40:04;22.10;60.60
10192;DHT22;17580;50.850;4.504;2022-07-25T06:42:31;22.10;61.10
10192;DHT22;17580;50.850;4.504;2022-07-25T06:45:02;22.00;60.10
10192;DHT22;17580;50.850;4.504;2022-07-25T06:47:30;22.00;60.60
10192;DHT22;17580;50.850;4.504;2022-07-25T06:49:57;22.00;61.00
10192;DHT22;17580;50.850;4.504;2022-07-25T06:52:27;22.00;61.00
10192;DHT22;17580;50.850;4.504;2022-07-25T06:54:54;22.10;60.10
10192;DHT22;17580;50.850;4.504;2022-07-25T06:57:20;22.10;59.90
10192;DHT22;17580;50.850;4.504;2022-07-25T06:59:48;22.00;61.00
10192;DHT22;17580;50.850;4.504;2022-07-25T07:02:14;22.00;61.70
10192;DHT22;17580;50.850;4.504;2022-07-25T07:04:43;22.10;62.60
10192;DHT22;17580;50.850;4.504;2022-07-25T07:07:10;22.20;62.60
10192;DHT22;17580;50.850;4.504;2022-07-25T07:09:37;22.20;62.90
10192;DHT22;17580;50.850;4.504;2022-07-25T07:12:04;22.20;63.60
10192;DHT22;17580;50.850;4.504;2022-07-25T07:14:31;22.40;63.80
10192;DHT22;17580;50.850;4.504;2022-07-25T07:16:58;22.50;64.50
10192;DHT22;17580;50.850;4.504;2022-07-25T07:19:25;22.60;63.40
10192;DHT22;17580;50.850;4.504;2022-07-25T07:21:53;22.60;62.20
10192;DHT22;17580;50.850;4.504;2022-07-25T07:24:20;22.70;63.00
10192;DHT22;17580;50.850;4.504;2022-07-25T07:26:47;22.80;62.60
10192;DHT22;17580;50.850;4.504;2022-07-25T07:29:14;22.90;62.30
10192;DHT22;17580;50.850;4.504;2022-07-25T07:31:41;23.00;61.90
10192;DHT22;17580;50.850;4.504;2022-07-25T07:34:08;23.00;60.80
10192;DHT22;17580;50.850;4.504;2022-07-25T07:36:35;22.90;62.00
10192;DHT22;17580;50.850;4.504;2022-07-25T07:39:04;22.90;62.90
10192;DHT22;17580;50.850;4.504;2022-07-25T07:41:30;22.80;63.80
10192;DHT22;17580;50.850;4.504;2022-07-25T07:43:57;22.70;63.20
10192;DHT22;17580;50.850;4.504;2022-07-25T07:46:24;22.70;64.70
10192;DHT22;17580;50.850;4.504;2022-07-25T07:48:51;22.90;64.70
10192;DHT22;17580;50.850;4.504;2022-07-25T07:51:18;22.90;62.20
10192;DHT22;17580;50.850;4.504;2022-07-25T07:53:47;22.90;63.40
10192;DHT22;17580;50.850;4.504;2022-07-25T07:56:32;22.90;64.60
10192;DHT22;17580;50.850;4.504;2022-07-25T07:58:59;23.00;62.70
10192;DHT22;17580;50.850;4.504;2022-07-25T08:01:26;22.80;62.70
10192;DHT22;17580;50.850;4.504;2022-07-25T08:03:53;22.70;63.90
10192;DHT22;17580;50.850;4.504;2022-07-25T08:06:20;22.70;63.40
10192;DHT22;17580;50.850;4.504;2022-07-25T08:08:47;22.80;64.20
10192;DHT22;17580;50.850;4.504;2022-07-25T08:11:13;22.80;65.80
10192;DHT22;17580;50.850;4.504;2022-07-25T08:13:42;22.90;63.70
10192;DHT22;17580;50.850;4.504;2022-07-25T08:16:09;22.90;63.20
10192;DHT22;17580;50.850;4.504;2022-07-25T08:18:38;22.90;63.40
10192;DHT22;17580;50.850;4.504;2022-07-25T08:21:05;23.10;61.50
10192;DHT22;17580;50.850;4.504;2022-07-25T08:23:33;23.10;62.30
10192;DHT22;17580;50.850;4.504;2022-07-25T08:26:00;23.20;63.60
10192;DHT22;17580;50.850;4.504;2022-07-25T08:28:28;23.20;61.10
10192;DHT22;17580;50.850;4.504;2022-07-25T08:30:56;23.10;61.80
10192;DHT22;17580;50.850;4.504;2022-07-25T08:33:24;23.10;60.90
10192;DHT22;17580;50.850;4.504;2022-07-25T08:35:52;23.20;62.30
10192;DHT22;17580;50.850;4.504;2022-07-25T08:38:21;23.40;62.00
10192;DHT22;17580;50.850;4.504;2022-07-25T08:40:48;23.50;61.40
10192;DHT22;17580;50.850;4.504;2022-07-25T08:43:16;23.70;60.30
10192;DHT22;17580;50.850;4.504;2022-07-25T08:45:44;23.70;59.20
10192;DHT22;17580;50.850;4.504;2022-07-25T08:48:18;23.60;59.80
10192;DHT22;17580;50.850;4.504;2022-07-25T08:50:46;23.70;59.50
10192;DHT22;17580;50.850;4.504;2022-07-25T08:53:14;23.90;60.10
10192;DHT22;17580;50.850;4.504;2022-07-25T08:55:41;24.00;60.60
10192;DHT22;17580;50.850;4.504;2022-07-25T08:58:10;24.00;58.40
10192;DHT22;17580;50.850;4.504;2022-07-25T09:00:39;24.10;58.40
10192;DHT22;17580;50.850;4.504;2022-07-25T09:03:07;24.30;58.20
10192;DHT22;17580;50.850;4.504;2022-07-25T09:05:39;24.20;58.10
10192;DHT22;17580;50.850;4.504;2022-07-25T09:08:07;24.20;58.60
10192;DHT22;17580;50.850;4.504;2022-07-25T09:10:34;24.40;58.30
10192;DHT22;17580;50.850;4.504;2022-07-25T09:13:04;24.60;57.40
10192;DHT22;17580;50.850;4.504;2022-07-25T09:15:34;24.80;57.70
10192;DHT22;17580;50.850;4.504;2022-07-25T09:18:03;25.50;56.10
10192;DHT22;17580;50.850;4.504;2022-07-25T09:20:39;25.60;54.20
10192;DHT22;17580;50.850;4.504;2022-07-25T09:23:06;25.70;52.70
10192;DHT22;17580;50.850;4.504;2022-07-25T09:25:33;25.70;52.00
10192;DHT22;17580;50.850;4.504;2022-07-25T09:28:14;25.50;52.50
10192;DHT22;17580;50.850;4.504;2022-07-25T09:30:55;26.20;52.00
10192;DHT22;17580;50.850;4.504;2022-07-25T09:33:23;26.10;50.60
10192;DHT22;17580;50.850;4.504;2022-07-25T09:35:51;26.10;51.10
10192;DHT22;17580;50.850;4.504;2022-07-25T09:38:20;25.80;51.20
10192;DHT22;17580;50.850;4.504;2022-07-25T09:40:54;25.80;51.00
10192;DHT22;17580;50.850;4.504;2022-07-25T09:43:22;25.70;51.10
10192;DHT22;17580;50.850;4.504;2022-07-25T09:45:49;25.50;51.80
10192;DHT22;17580;50.850;4.504;2022-07-25T09:48:18;25.50;52.40
10192;DHT22;17580;50.850;4.504;2022-07-25T09:50:46;25.60;51.50
10192;DHT22;17580;50.850;4.504;2022-07-25T09:53:15;25.80;51.20
10192;DHT22;17580;50.850;4.504;2022-07-25T09:55:42;25.90;50.20
10192;DHT22;17580;50.850;4.504;2022-07-25T09:58:09;25.60;50.70
10192;DHT22;17580;50.850;4.504;2022-07-25T10:00:39;25.40;51.10
10192;DHT22;17580;50.850;4.504;2022-07-25T10:03:23;25.40;50.50
10192;DHT22;17580;50.850;4.504;2022-07-25T10:06:04;25.50;49.80
10192;DHT22;17580;50.850;4.504;2022-07-25T10:08:37;26.70;47.50
10192;DHT22;17580;50.850;4.504;2022-07-25T10:11:04;27.80;47.40
10192;DHT22;17580;50.850;4.504;2022-07-25T10:13:34;28.00;43.30
10192;DHT22;17580;50.850;4.504;2022-07-25T10:16:01;27.30;42.50
10192;DHT22;17580;50.850;4.504;2022-07-25T10:18:29;26.50;44.00
10192;DHT22;17580;50.850;4.504;2022-07-25T10:21:08;26.00;45.10
10192;DHT22;17580;50.850;4.504;2022-07-25T10:23:37;26.50;44.30
10192;DHT22;17580;50.850;4.504;2022-07-25T10:26:07;27.30;43.00
10192;DHT22;17580;50.850;4.504;2022-07-25T10:28:37;27.50;41.10
10192;DHT22;17580;50.850;4.504;2022-07-25T10:31:17;27.00;41.80
10192;DHT22;17580;50.850;4.504;2022-07-25T10:33:49;26.60;43.20
10192;DHT22;17580;50.850;4.504;2022-07-25T10:36:16;26.30;43.70
10192;DHT22;17580;50.850;4.504;2022-07-25T10:38:45;26.20;44.00
10192;DHT22;17580;50.850;4.504;2022-07-25T10:41:14;26.00;43.90
10192;DHT22;17580;50.850;4.504;2022-07-25T10:43:44;25.90;45.20
10192;DHT22;17580;50.850;4.504;2022-07-25T10:46:12;26.00;44.30
10192;DHT22;17580;50.850;4.504;2022-07-25T10:48:40;25.90;42.50
10192;DHT22;17580;50.850;4.504;2022-07-25T10:51:08;25.70;42.50
10192;DHT22;17580;50.850;4.504;2022-07-25T10:53:37;25.50;43.60
10192;DHT22;17580;50.850;4.504;2022-07-25T10:56:13;25.40;45.80
10192;DHT22;17580;50.850;4.504;2022-07-25T10:58:46;25.40;45.90
10192;DHT22;17580;50.850;4.504;2022-07-25T11:01:18;25.40;45.50
10192;DHT22;17580;50.850;4.504;2022-07-25T11:03:45;25.20;45.30
10192;DHT22;17580;50.850;4.504;2022-07-25T11:06:13;25.10;45.10
10192;DHT22;17580;50.850;4.504;2022-07-25T11:08:40;24.90;46.30
10192;DHT22;17580;50.850;4.504;2022-07-25T11:11:08;24.70;46.60
10192;DHT22;17580;50.850;4.504;2022-07-25T11:13:37;24.60;45.80
10192;DHT22;17580;50.850;4.504;2022-07-25T11:16:05;24.50;45.50
10192;DHT22;17580;50.850;4.504;2022-07-25T11:18:33;24.40;46.50
10192;DHT22;17580;50.850;4.504;2022-07-25T11:21:02;24.40;47.30
10192;DHT22;17580;50.850;4.504;2022-07-25T11:23:29;24.30;47.60
10192;DHT22;17580;50.850;4.504;2022-07-25T11:26:06;24.00;47.70
10192;DHT22;17580;50.850;4.504;2022-07-25T11:28:39;23.80;48.70
10192;DHT22;17580;50.850;4.504;2022-07-25T11:31:07;23.60;48.80
10192;DHT22;17580;50.850;4.504;2022-07-25T11:33:34;23.40;48.80
10192;DHT22;17580;50.850;4.504;2022-07-25T11:36:02;23.30;48.60
10192;DHT22;17580;50.850;4.504;2022-07-25T11:38:29;23.30;49.10
10192;DHT22;17580;50.850;4.504;2022-07-25T11:40:56;23.30;48.70
10192;DHT22;17580;50.850;4.504;2022-07-25T11:43:24;23.40;48.80
10192;DHT22;17580;50.850;4.504;2022-07-25T11:45:57;23.30;50.00
10192;DHT22;17580;50.850;4.504;2022-07-25T11:48:30;23.30;49.30
10192;DHT22;17580;50.850;4.504;2022-07-25T11:50:57;23.30;49.50
10192;DHT22;17580;50.850;4.504;2022-07-25T11:53:38;23.20;47.90
10192;DHT22;17580;50.850;4.504;2022-07-25T11:56:13;23.20;47.60
10192;DHT22;17580;50.850;4.504;2022-07-25T11:58:41;23.10;48.90
10192;DHT22;17580;50.850;4.504;2022-07-25T12:01:14;23.00;50.40
10192;DHT22;17580;50.850;4.504;2022-07-25T12:03:41;23.00;54.70
10192;DHT22;17580;50.850;4.504;2022-07-25T12:06:11;22.90;53.30
10192;DHT22;17580;50.850;4.504;2022-07-25T12:08:41;22.90;54.30
10192;DHT22;17580;50.850;4.504;2022-07-25T12:11:19;23.10;54.10
10192;DHT22;17580;50.850;4.504;2022-07-25T12:13:46;24.00;54.40
10192;DHT22;17580;50.850;4.504;2022-07-25T12:16:15;24.90;50.70
10192;DHT22;17580;50.850;4.504;2022-07-25T12:18:42;25.50;49.00
10192;DHT22;17580;50.850;4.504;2022-07-25T12:21:09;25.90;47.50
10192;DHT22;17580;50.850;4.504;2022-07-25T12:23:36;26.00;45.60
10192;DHT22;17580;50.850;4.504;2022-07-25T12:26:07;26.30;45.40
10192;DHT22;17580;50.850;4.504;2022-07-25T12:28:35;26.20;45.50
10192;DHT22;17580;50.850;4.504;2022-07-25T12:31:02;26.40;45.10
10192;DHT22;17580;50.850;4.504;2022-07-25T12:33:30;27.10;42.70
10192;DHT22;17580;50.850;4.504;2022-07-25T12:35:58;27.20;41.80
10192;DHT22;17580;50.850;4.504;2022-07-25T12:38:25;26.60;41.30
10192;DHT22;17580;50.850;4.504;2022-07-25T12:40:52;26.00;42.50
10192;DHT22;17580;50.850;4.504;2022-07-25T12:43:19;25.50;43.30
10192;DHT22;17580;50.850;4.504;2022-07-25T12:45:47;25.20;43.80
10192;DHT22;17580;50.850;4.504;2022-07-25T12:48:14;24.80;45.00
10192;DHT22;17580;50.850;4.504;2022-07-25T12:50:43;24.50;45.30
10192;DHT22;17580;50.850;4.504;2022-07-25T12:53:10;24.30;45.80
10192;DHT22;17580;50.850;4.504;2022-07-25T12:55:39;24.40;46.50
10192;DHT22;17580;50.850;4.504;2022-07-25T12:58:06;24.60;46.20
10192;DHT22;17580;50.850;4.504;2022-07-25T13:00:33;24.90;46.00
10192;DHT22;17580;50.850;4.504;2022-07-25T13:03:00;25.20;45.20
10192;DHT22;17580;50.850;4.504;2022-07-25T13:05:27;25.60;45.30
10192;DHT22;17580;50.850;4.504;2022-07-25T13:07:55;26.60;44.50
10192;DHT22;17580;50.850;4.504;2022-07-25T13:10:23;27.10;42.00
10192;DHT22;17580;50.850;4.504;2022-07-25T13:12:50;27.10;41.80
10192;DHT22;17580;50.850;4.504;2022-07-25T13:15:17;26.50;41.70
10192;DHT22;17580;50.850;4.504;2022-07-25T13:17:45;26.50;41.60
10192;DHT22;17580;50.850;4.504;2022-07-25T13:20:12;26.30;39.70
10192;DHT22;17580;50.850;4.504;2022-07-25T13:22:40;26.30;40.20
10192;DHT22;17580;50.850;4.504;2022-07-25T13:25:08;26.10;42.00
10192;DHT22;17580;50.850;4.504;2022-07-25T13:27:36;26.20;40.10
10192;DHT22;17580;50.850;4.504;2022-07-25T13:30:05;25.70;39.50
10192;DHT22;17580;50.850;4.504;2022-07-25T13:32:33;25.40;40.50
10192;DHT22;17580;50.850;4.504;2022-07-25T13:35:00;25.60;39.70
10192;DHT22;17580;50.850;4.504;2022-07-25T13:37:27;25.50;40.10
10192;DHT22;17580;50.850;4.504;2022-07-25T13:39:53;25.50;39.40
10192;DHT22;17580;50.850;4.504;2022-07-25T13:42:22;25.40;39.70
10192;DHT22;17580;50.850;4.504;2022-07-25T13:44:49;25.50;38.80
10192;DHT22;17580;50.850;4.504;2022-07-25T13:47:16;26.20;39.50
10192;DHT22;17580;50.850;4.504;2022-07-25T13:49:43;26.10;38.70
10192;DHT22;17580;50.850;4.504;2022-07-25T13:52:10;26.10;38.20
10192;DHT22;17580;50.850;4.504;2022-07-25T13:54:37;25.90;37.50
10192;DHT22;17580;50.850;4.504;2022-07-25T13:57:04;25.80;37.50
10192;DHT22;17580;50.850;4.504;2022-07-25T13:59:32;25.60;36.60
10192;DHT22;17580;50.850;4.504;2022-07-25T14:02:01;25.70;36.70
10192;DHT22;17580;50.850;4.504;2022-07-25T14:04:27;26.10;36.60
10192;DHT22;17580;50.850;4.504;2022-07-25T14:06:55;26.20;34.00
10192;DHT22;17580;50.850;4.504;2022-07-25T14:09:22;26.20;35.10
10192;DHT22;17580;50.850;4.504;2022-07-25T14:11:49;26.10;33.10
10192;DHT22;17580;50.850;4.504;2022-07-25T14:14:16;26.40;32.70
10192;DHT22;17580;50.850;4.504;2022-07-25T14:16:44;26.60;31.80
10192;DHT22;17580;50.850;4.504;2022-07-25T14:19:11;26.50;31.70
10192;DHT22;17580;50.850;4.504;2022-07-25T14:21:38;25.90;33.30
10192;DHT22;17580;50.850;4.504;2022-07-25T14:24:05;25.90;33.30
10192;DHT22;17580;50.850;4.504;2022-07-25T14:26:33;26.10;32.20
10192;DHT22;17580;50.850;4.504;2022-07-25T14:29:00;25.80;32.60
10192;DHT22;17580;50.850;4.504;2022-07-25T14:31:27;25.70;33.70
10192;DHT22;17580;50.850;4.504;2022-07-25T14:33:55;25.70;33.40
10192;DHT22;17580;50.850;4.504;2022-07-25T14:36:23;25.90;32.00
10192;DHT22;17580;50.850;4.504;2022-07-25T14:38:50;26.00;33.00
10192;DHT22;17580;50.850;4.504;2022-07-25T14:41:17;26.30;30.50
10192;DHT22;17580;50.850;4.504;2022-07-25T14:43:47;26.10;30.50
10192;DHT22;17580;50.850;4.504;2022-07-25T14:46:14;26.10;31.20
10192;DHT22;17580;50.850;4.504;2022-07-25T14:48:41;26.30;30.00
10192;DHT22;17580;50.850;4.504;2022-07-25T14:51:09;26.50;30.00
10192;DHT22;17580;50.850;4.504;2022-07-25T14:53:36;26.20;29.30
10192;DHT22;17580;50.850;4.504;2022-07-25T14:56:07;26.50;28.20
10192;DHT22;17580;50.850;4.504;2022-07-25T14:58:34;26.70;27.30
10192;DHT22;17580;50.850;4.504;2022-07-25T15:01:02;26.70;28.10
10192;DHT22;17580;50.850;4.504;2022-07-25T15:03:30;26.20;26.60
10192;DHT22;17580;50.850;4.504;2022-07-25T15:05:57;26.10;27.20
10192;DHT22;17580;50.850;4.504;2022-07-25T15:08:25;26.00;27.00
10192;DHT22;17580;50.850;4.504;2022-07-25T15:10:53;25.70;27.30
10192;DHT22;17580;50.850;4.504;2022-07-25T15:13:20;25.50;28.20
10192;DHT22;17580;50.850;4.504;2022-07-25T15:15:47;25.40;29.10
10192;DHT22;17580;50.850;4.504;2022-07-25T15:18:14;25.30;28.80
10192;DHT22;17580;50.850;4.504;2022-07-25T15:20:41;25.30;29.10
10192;DHT22;17580;50.850;4.504;2022-07-25T15:23:08;25.50;28.90
10192;DHT22;17580;50.850;4.504;2022-07-25T15:25:36;25.80;28.90
10192;DHT22;17580;50.850;4.504;2022-07-25T15:28:04;25.80;27.90
10192;DHT22;17580;50.850;4.504;2022-07-25T15:30:31;25.40;28.20
10192;DHT22;17580;50.850;4.504;2022-07-25T15:32:58;25.00;27.90
10192;DHT22;17580;50.850;4.504;2022-07-25T15:35:24;24.90;28.10